sensor_id;sensor_type;location;lat;lon;timestamp;pressure;altitude;pressure_sealevel;temperature;humidity
47716;BME280;33476;50.984;3.538;2024-02-26T00:01:48;99533.00;;;9.79;66.78
47716;BME280;33476;50.984;3.538;2024-02-26T00:04:13;99541.19;;;9.73;66.89
47716;BME280;33476;50.984;3.538;2024-02-26T00:06:39;99531.91;;;9.69;67.28
47716;BME280;33476;50.984;3.538;2024-02-26T00:09:11;99532.94;;;9.67;67.36
47716;BME280;33476;50.984;3.538;2024-02-26T00:11:36;99531.16;;;9.67;67.42
47716;BME280;33476;50.984;3.538;2024-02-26T00:14:02;99527.81;;;9.65;67.80
47716;BME280;33476;50.984;3.538;2024-02-26T00:16:28;99529.38;;;9.68;67.62
47716;BME280;33476;50.984;3.538;2024-02-26T00:18:53;99526.88;;;9.66;67.86
47716;BME280;33476;50.984;3.538;2024-02-26T00:21:18;99526.88;;;9.66;67.79
47716;BME280;33476;50.984;3.538;2024-02-26T00:23:44;99524.09;;;9.69;67.88
47716;BME280;33476;50.984;3.538;2024-02-26T00:26:09;99514.78;;;9.65;67.96
47716;BME280;33476;50.984;3.538;2024-02-26T00:28:36;99515.53;;;9.67;68.14
47716;BME280;33476;50.984;3.538;2024-02-26T00:31:01;99512.72;;;9.70;67.83
47716;BME280;33476;50.984;3.538;2024-02-26T00:33:27;99511.06;;;9.69;68.05
47716;BME280;33476;50.984;3.538;2024-02-26T00:35:53;99506.88;;;9.67;67.97
47716;BME280;33476;50.984;3.538;2024-02-26T00:38:18;99506.03;;;9.66;68.30
47716;BME280;33476;50.984;3.538;2024-02-26T00:40:43;99514.06;;;9.63;68.29
47716;BME280;33476;50.984;3.538;2024-02-26T00:43:09;99514.16;;;9.62;68.27
47716;BME280;33476;50.984;3.538;2024-02-26T00:45:34;99514.44;;;9.57;68.73
47716;BME280;33476;50.984;3.538;2024-02-26T00:48:00;99507.66;;;9.54;68.68
47716;BME280;33476;50.984;3.538;2024-02-26T00:50:36;99509.28;;;9.43;69.04
47716;BME280;33476;50.984;3.538;2024-02-26T00:53:01;99522.59;;;9.52;68.85
47716;BME280;33476;50.984;3.538;2024-02-26T00:55:27;99531.22;;;9.53;69.13
47716;BME280;33476;50.984;3.538;2024-02-26T00:57:52;99521.94;;;9.49;69.32
47716;BME280;33476;50.984;3.538;2024-02-26T01:00:17;99528.19;;;9.46;69.47
47716;BME280;33476;50.984;3.538;2024-02-26T01:02:43;99529.84;;;9.47;69.09
47716;BME280;33476;50.984;3.538;2024-02-26T01:05:11;99530.34;;;9.40;69.71
47716;BME280;33476;50.984;3.538;2024-02-26T01:07:37;99535.66;;;9.38;69.99
47716;BME280;33476;50.984;3.538;2024-02-26T01:10:02;99523.66;;;9.36;70.06
47716;BME280;33476;50.984;3.538;2024-02-26T01:12:28;99529.59;;;9.38;69.80
47716;BME280;33476;50.984;3.538;2024-02-26T01:14:53;99530.72;;;9.34;70.34
47716;BME280;33476;50.984;3.538;2024-02-26T01:17:19;99529.97;;;9.32;70.11
47716;BME280;33476;50.984;3.538;2024-02-26T01:19:44;99535.09;;;9.33;70.43
47716;BME280;33476;50.984;3.538;2024-02-26T01:22:09;99528.75;;;9.37;70.34
47716;BME280;33476;50.984;3.538;2024-02-26T01:24:35;99529.59;;;9.38;70.20
47716;BME280;33476;50.984;3.538;2024-02-26T01:27:00;99529.50;;;9.39;70.33
47716;BME280;33476;50.984;3.538;2024-02-26T01:29:25;99531.28;;;9.39;70.20
47716;BME280;33476;50.984;3.538;2024-02-26T01:31:51;99532.31;;;9.36;70.57
47716;BME280;33476;50.984;3.538;2024-02-26T01:34:16;99529.78;;;9.35;70.67
47716;BME280;33476;50.984;3.538;2024-02-26T01:36:43;99532.69;;;9.30;70.85
47716;BME280;33476;50.984;3.538;2024-02-26T01:39:09;99536.22;;;9.29;71.24
47716;BME280;33476;50.984;3.538;2024-02-26T01:41:40;99540.41;;;9.32;70.82
47716;BME280;33476;50.984;3.538;2024-02-26T01:44:06;99542.38;;;9.28;71.07
47716;BME280;33476;50.984;3.538;2024-02-26T01:46:33;99546.56;;;9.31;71.06
47716;BME280;33476;50.984;3.538;2024-02-26T01:48:59;99537.78;;;9.32;70.74
47716;BME280;33476;50.984;3.538;2024-02-26T01:51:25;99539.47;;;9.33;71.28
47716;BME280;33476;50.984;3.538;2024-02-26T01:53:51;99545.41;;;9.35;70.92
47716;BME280;33476;50.984;3.538;2024-02-26T01:56:17;99543.09;;;9.30;71.15
47716;BME280;33476;50.984;3.538;2024-02-26T01:58:43;99546.66;;;9.29;71.13
47716;BME280;33476;50.984;3.538;2024-02-26T02:01:09;99547.94;;;9.36;70.86
47716;BME280;33476;50.984;3.538;2024-02-26T02:03:35;99543.34;;;9.40;70.92
47716;BME280;33476;50.984;3.538;2024-02-26T02:06:02;99547.53;;;9.42;70.70
47716;BME280;33476;50.984;3.538;2024-02-26T02:08:28;99551.28;;;9.38;70.76
47716;BME280;33476;50.984;3.538;2024-02-26T02:10:53;99553.44;;;9.32;71.29
47716;BME280;33476;50.984;3.538;2024-02-26T02:13:19;99558.75;;;9.30;71.50
47716;BME280;33476;50.984;3.538;2024-02-26T02:15:44;99564.91;;;9.29;71.25
47716;BME280;33476;50.984;3.538;2024-02-26T02:18:09;99559.84;;;9.26;71.45
47716;BME280;33476;50.984;3.538;2024-02-26T02:20:35;99566.47;;;9.32;71.31
47716;BME280;33476;50.984;3.538;2024-02-26T02:23:01;99564.50;;;9.35;71.78
47716;BME280;33476;50.984;3.538;2024-02-26T02:25:27;99572.59;;;9.31;71.40
47716;BME280;33476;50.984;3.538;2024-02-26T02:27:54;99557.72;;;9.33;71.41
47716;BME280;33476;50.984;3.538;2024-02-26T02:30:25;99564.69;;;9.32;71.73
47716;BME280;33476;50.984;3.538;2024-02-26T02:32:52;99561.97;;;9.34;71.60
47716;BME280;33476;50.984;3.538;2024-02-26T02:35:17;99564.50;;;9.35;71.59
47716;BME280;33476;50.984;3.538;2024-02-26T02:37:42;99566.56;;;9.30;72.06
47716;BME280;33476;50.984;3.538;2024-02-26T02:40:08;99564.59;;;9.34;71.83
47716;BME280;33476;50.984;3.538;2024-02-26T02:42:33;99563.66;;;9.35;72.10
47716;BME280;33476;50.984;3.538;2024-02-26T02:44:59;99560.50;;;9.29;72.01
47716;BME280;33476;50.984;3.538;2024-02-26T02:47:24;99566.56;;;9.30;72.46
47716;BME280;33476;50.984;3.538;2024-02-26T02:49:49;99558.75;;;9.30;72.11
47716;BME280;33476;50.984;3.538;2024-02-26T02:52:15;99562.09;;;9.32;72.08
47716;BME280;33476;50.984;3.538;2024-02-26T02:54:40;99565.53;;;9.33;72.50
47716;BME280;33476;50.984;3.538;2024-02-26T02:57:07;99554.16;;;9.34;72.51
47716;BME280;33476;50.984;3.538;2024-02-26T02:59:32;99575.47;;;9.26;72.29
47716;BME280;33476;50.984;3.538;2024-02-26T03:01:58;99559.06;;;9.11;72.69
47716;BME280;33476;50.984;3.538;2024-02-26T03:04:23;99565.38;;;9.07;72.85
47716;BME280;33476;50.984;3.538;2024-02-26T03:06:49;99574.69;;;9.11;72.96
47716;BME280;33476;50.984;3.538;2024-02-26T03:09:14;99568.53;;;9.12;72.89
47716;BME280;33476;50.984;3.538;2024-02-26T03:11:39;99573.03;;;9.10;72.52
47716;BME280;33476;50.984;3.538;2024-02-26T03:14:05;99579.22;;;9.08;72.76
47716;BME280;33476;50.984;3.538;2024-02-26T03:16:31;99581.56;;;9.12;72.82
47716;BME280;33476;50.984;3.538;2024-02-26T03:18:56;99584.34;;;9.09;72.83
47716;BME280;33476;50.984;3.538;2024-02-26T03:21:22;99581.75;;;9.09;72.92
47716;BME280;33476;50.984;3.538;2024-02-26T03:23:47;99572.72;;;9.15;72.99
47716;BME280;33476;50.984;3.538;2024-02-26T03:26:12;99572.50;;;9.18;72.96
47716;BME280;33476;50.984;3.538;2024-02-26T03:28:40;99576.25;;;9.14;72.47
47716;BME280;33476;50.984;3.538;2024-02-26T03:31:05;99578.97;;;9.12;72.45
47716;BME280;33476;50.984;3.538;2024-02-26T03:33:31;99579.91;;;9.11;72.75
47716;BME280;33476;50.984;3.538;2024-02-26T03:35:56;99583.25;;;9.13;72.63
47716;BME280;33476;50.984;3.538;2024-02-26T03:38:22;99586.47;;;9.17;72.88
47716;BME280;33476;50.984;3.538;2024-02-26T03:40:47;99592.16;;;9.09;73.10
47716;BME280;33476;50.984;3.538;2024-02-26T03:43:13;99600.81;;;9.10;72.87
47716;BME280;33476;50.984;3.538;2024-02-26T03:45:39;99599.97;;;9.09;73.10
47716;BME280;33476;50.984;3.538;2024-02-26T03:48:05;99614.13;;;9.05;73.01
47716;BME280;33476;50.984;3.538;2024-02-26T03:50:30;99613.19;;;9.06;73.02
47716;BME280;33476;50.984;3.538;2024-02-26T03:52:56;99607.78;;;9.09;73.20
47716;BME280;33476;50.984;3.538;2024-02-26T03:55:22;99613.66;;;9.13;72.85
47716;BME280;33476;50.984;3.538;2024-02-26T03:57:51;99613.19;;;9.06;72.94
47716;BME280;33476;50.984;3.538;2024-02-26T04:00:17;99625.28;;;9.07;72.84
47716;BME280;33476;50.984;3.538;2024-02-26T04:02:42;99615.78;;;9.06;73.44
47716;BME280;33476;50.984;3.538;2024-02-26T04:05:11;99620.28;;;9.04;73.28
47716;BME280;33476;50.984;3.538;2024-02-26T04:07:37;99621.09;;;9.05;73.37
47716;BME280;33476;50.984;3.538;2024-02-26T04:10:02;99635.31;;;8.99;72.95
47716;BME280;33476;50.984;3.538;2024-02-26T04:12:31;99634.38;;;9.00;73.41
47716;BME280;33476;50.984;3.538;2024-02-26T04:14:56;99646.41;;;9.03;72.99
47716;BME280;33476;50.984;3.538;2024-02-26T04:17:21;99659.50;;;9.01;73.23
47716;BME280;33476;50.984;3.538;2024-02-26T04:19:47;99654.22;;;9.03;73.14
47716;BME280;33476;50.984;3.538;2024-02-26T04:22:12;99645.38;;;9.05;72.93
47716;BME280;33476;50.984;3.538;2024-02-26T04:24:37;99660.06;;;9.06;72.78
47716;BME280;33476;50.984;3.538;2024-02-26T04:27:03;99648.91;;;9.04;72.79
47716;BME280;33476;50.984;3.538;2024-02-26T04:29:28;99649.84;;;9.03;72.86
47716;BME280;33476;50.984;3.538;2024-02-26T04:31:53;99655.13;;;9.01;73.04
47716;BME280;33476;50.984;3.538;2024-02-26T04:34:19;99658.41;;;9.05;72.74
47716;BME280;33476;50.984;3.538;2024-02-26T04:36:44;99661.00;;;9.05;72.97
47716;BME280;33476;50.984;3.538;2024-02-26T04:39:10;99669.91;;;9.01;73.01
47716;BME280;33476;50.984;3.538;2024-02-26T04:41:35;99674.38;;;8.99;72.87
47716;BME280;33476;50.984;3.538;2024-02-26T04:44:01;99664.16;;;8.96;73.17
47716;BME280;33476;50.984;3.538;2024-02-26T04:46:27;99679.78;;;8.96;73.51
47716;BME280;33476;50.984;3.538;2024-02-26T04:48:53;99685.16;;;8.93;73.32
47716;BME280;33476;50.984;3.538;2024-02-26T04:51:19;99676.69;;;8.89;73.37
47716;BME280;33476;50.984;3.538;2024-02-26T04:53:44;99694.09;;;8.89;73.28
47716;BME280;33476;50.984;3.538;2024-02-26T04:56:09;99682.16;;;8.85;73.57
47716;BME280;33476;50.984;3.538;2024-02-26T04:58:35;99678.56;;;8.87;73.87
47716;BME280;33476;50.984;3.538;2024-02-26T05:01:00;99682.50;;;8.94;73.12
47716;BME280;33476;50.984;3.538;2024-02-26T05:03:26;99692.81;;;8.96;73.10
47716;BME280;33476;50.984;3.538;2024-02-26T05:05:51;99679.06;;;8.94;73.30
47716;BME280;33476;50.984;3.538;2024-02-26T05:08:16;99689.38;;;8.95;73.54
47716;BME280;33476;50.984;3.538;2024-02-26T05:10:42;99681.66;;;8.94;73.61
47716;BME280;33476;50.984;3.538;2024-02-26T05:13:08;99685.84;;;8.96;73.23
47716;BME280;33476;50.984;3.538;2024-02-26T05:15:34;99678.75;;;8.98;73.37
47716;BME280;33476;50.984;3.538;2024-02-26T05:17:59;99681.47;;;8.97;73.41
47716;BME280;33476;50.984;3.538;2024-02-26T05:20:25;99695.22;;;8.99;73.32
47716;BME280;33476;50.984;3.538;2024-02-26T05:22:51;99695.31;;;8.97;73.57
47716;BME280;33476;50.984;3.538;2024-02-26T05:25:16;99699.59;;;8.98;73.30
47716;BME280;33476;50.984;3.538;2024-02-26T05:27:43;99698.75;;;8.98;73.77
47716;BME280;33476;50.984;3.538;2024-02-26T05:30:09;99706.31;;;9.03;73.54
47716;BME280;33476;50.984;3.538;2024-02-26T05:32:34;99710.69;;;9.02;73.12
47716;BME280;33476;50.984;3.538;2024-02-26T05:34:59;99712.53;;;9.00;73.34
47716;BME280;33476;50.984;3.538;2024-02-26T05:37:25;99716.72;;;9.03;73.86
47716;BME280;33476;50.984;3.538;2024-02-26T05:39:50;99719.16;;;9.06;73.40
47716;BME280;33476;50.984;3.538;2024-02-26T05:42:15;99722.41;;;9.09;73.23
47716;BME280;33476;50.984;3.538;2024-02-26T05:44:41;99744.84;;;9.12;73.45
47716;BME280;33476;50.984;3.538;2024-02-26T05:47:06;99739.78;;;9.09;73.16
47716;BME280;33476;50.984;3.538;2024-02-26T05:49:31;99747.69;;;9.07;73.20
47716;BME280;33476;50.984;3.538;2024-02-26T05:51:58;99746.03;;;9.06;73.49
47716;BME280;33476;50.984;3.538;2024-02-26T05:54:24;99741.06;;;9.01;73.31
47716;BME280;33476;50.984;3.538;2024-02-26T05:56:49;99756.97;;;8.97;73.48
47716;BME280;33476;50.984;3.538;2024-02-26T05:59:14;99760.63;;;8.94;73.94
47716;BME280;33476;50.984;3.538;2024-02-26T06:01:41;99769.31;;;8.93;73.81
47716;BME280;33476;50.984;3.538;2024-02-26T06:04:06;99769.25;;;8.95;73.86
47716;BME280;33476;50.984;3.538;2024-02-26T06:06:31;99779.59;;;8.96;73.87
47716;BME280;33476;50.984;3.538;2024-02-26T06:08:57;99787.31;;;8.98;73.59
47716;BME280;33476;50.984;3.538;2024-02-26T06:11:22;99787.41;;;8.96;73.72
47716;BME280;33476;50.984;3.538;2024-02-26T06:13:48;99794.94;;;9.01;73.32
47716;BME280;33476;50.984;3.538;2024-02-26T06:16:13;99802.69;;;9.03;73.46
47716;BME280;33476;50.984;3.538;2024-02-26T06:18:39;99801.66;;;9.05;73.10
47716;BME280;33476;50.984;3.538;2024-02-26T06:21:04;99805.28;;;9.03;73.23
47716;BME280;33476;50.984;3.538;2024-02-26T06:23:34;99807.22;;;8.99;73.23
47716;BME280;33476;50.984;3.538;2024-02-26T06:25:59;99809.91;;;8.97;73.64
47716;BME280;33476;50.984;3.538;2024-02-26T06:28:24;99814.88;;;9.02;73.36
47716;BME280;33476;50.984;3.538;2024-02-26T06:30:50;99820.91;;;9.03;73.03
47716;BME280;33476;50.984;3.538;2024-02-26T06:33:17;99835.72;;;9.02;73.29
47716;BME280;33476;50.984;3.538;2024-02-26T06:35:42;99829.22;;;8.93;73.26
47716;BME280;33476;50.984;3.538;2024-02-26T06:38:09;99833.44;;;8.96;73.55
47716;BME280;33476;50.984;3.538;2024-02-26T06:40:35;99839.41;;;8.98;73.57
47716;BME280;33476;50.984;3.538;2024-02-26T06:43:00;99846.38;;;8.97;73.60
47716;BME280;33476;50.984;3.538;2024-02-26T06:45:25;99851.16;;;8.89;73.79
47716;BME280;33476;50.984;3.538;2024-02-26T06:47:51;99849.50;;;8.88;73.64
47716;BME280;33476;50.984;3.538;2024-02-26T06:50:16;99858.16;;;8.89;73.67
47716;BME280;33476;50.984;3.538;2024-02-26T06:52:44;99858.06;;;8.90;73.48
47716;BME280;33476;50.984;3.538;2024-02-26T06:55:09;99869.41;;;8.89;73.50
47716;BME280;33476;50.984;3.538;2024-02-26T06:57:35;99880.75;;;8.88;73.80
47716;BME280;33476;50.984;3.538;2024-02-26T07:00:00;99880.75;;;8.88;73.66
47716;BME280;33476;50.984;3.538;2024-02-26T07:02:25;99876.72;;;8.83;73.79
47716;BME280;33476;50.984;3.538;2024-02-26T07:04:51;99875.78;;;8.84;73.74
47716;BME280;33476;50.984;3.538;2024-02-26T07:07:16;99888.88;;;8.82;73.68
47716;BME280;33476;50.984;3.538;2024-02-26T07:09:43;99888.72;;;8.85;73.62
47716;BME280;33476;50.984;3.538;2024-02-26T07:12:09;99907.88;;;8.84;73.72
47716;BME280;33476;50.984;3.538;2024-02-26T07:14:34;99908.22;;;8.78;73.63
47716;BME280;33476;50.984;3.538;2024-02-26T07:17:00;99914.50;;;8.74;73.79
47716;BME280;33476;50.984;3.538;2024-02-26T07:19:25;99918.03;;;8.73;73.51
47716;BME280;33476;50.984;3.538;2024-02-26T07:21:51;99913.50;;;8.77;73.58
47716;BME280;33476;50.984;3.538;2024-02-26T07:24:17;99930.72;;;8.79;73.45
47716;BME280;33476;50.984;3.538;2024-02-26T07:26:42;99937.69;;;8.79;73.57
47716;BME280;33476;50.984;3.538;2024-02-26T07:29:08;99933.47;;;8.76;73.68
47716;BME280;33476;50.984;3.538;2024-02-26T07:31:33;99942.47;;;8.70;73.56
47716;BME280;33476;50.984;3.538;2024-02-26T07:33:58;99949.47;;;8.70;73.56
47716;BME280;33476;50.984;3.538;2024-02-26T07:36:24;99952.13;;;8.68;73.85
47716;BME280;33476;50.984;3.538;2024-02-26T07:38:49;99957.19;;;8.71;73.46
47716;BME280;33476;50.984;3.538;2024-02-26T07:41:17;99965.00;;;8.71;73.33
47716;BME280;33476;50.984;3.538;2024-02-26T07:43:42;99966.66;;;8.72;73.15
47716;BME280;33476;50.984;3.538;2024-02-26T07:46:07;99974.47;;;8.72;73.45
47716;BME280;33476;50.984;3.538;2024-02-26T07:48:36;99965.66;;;8.75;73.02
47716;BME280;33476;50.984;3.538;2024-02-26T07:51:01;99972.94;;;8.68;73.48
47716;BME280;33476;50.984;3.538;2024-02-26T07:53:28;99983.63;;;8.64;73.62
47716;BME280;33476;50.984;3.538;2024-02-26T07:55:53;99982.88;;;8.62;73.35
47716;BME280;33476;50.984;3.538;2024-02-26T07:58:19;99989.66;;;8.64;73.54
47716;BME280;33476;50.984;3.538;2024-02-26T08:00:44;99985.13;;;8.68;73.62
47716;BME280;33476;50.984;3.538;2024-02-26T08:03:11;99999.84;;;8.69;73.39
47716;BME280;33476;50.984;3.538;2024-02-26T08:05:38;100001.44;;;8.71;73.54
47716;BME280;33476;50.984;3.538;2024-02-26T08:08:06;100009.25;;;8.71;73.06
47716;BME280;33476;50.984;3.538;2024-02-26T08:10:31;100005.09;;;8.67;73.47
47716;BME280;33476;50.984;3.538;2024-02-26T08:12:57;100011.31;;;8.65;73.40
47716;BME280;33476;50.984;3.538;2024-02-26T08:15:30;100007.66;;;8.69;73.53
47716;BME280;33476;50.984;3.538;2024-02-26T08:17:55;100013.84;;;8.66;73.54
47716;BME280;33476;50.984;3.538;2024-02-26T08:20:21;100020.66;;;8.69;73.49
47716;BME280;33476;50.984;3.538;2024-02-26T08:22:46;100025.94;;;8.67;73.73
47716;BME280;33476;50.984;3.538;2024-02-26T08:25:11;100028.53;;;8.67;73.69
47716;BME280;33476;50.984;3.538;2024-02-26T08:27:37;100029.47;;;8.66;73.90
47716;BME280;33476;50.984;3.538;2024-02-26T08:30:02;100033.16;;;8.62;73.69
47716;BME280;33476;50.984;3.538;2024-02-26T08:32:28;100043.41;;;8.65;73.42
47716;BME280;33476;50.984;3.538;2024-02-26T08:34:53;100050.19;;;8.68;73.61
47716;BME280;33476;50.984;3.538;2024-02-26T08:37:18;100053.72;;;8.67;73.59
47716;BME280;33476;50.984;3.538;2024-02-26T08:39:44;100060.38;;;8.72;73.25
47716;BME280;33476;50.984;3.538;2024-02-26T08:42:11;100061.91;;;8.77;73.40
47716;BME280;33476;50.984;3.538;2024-02-26T08:44:36;100061.00;;;8.78;73.50
47716;BME280;33476;50.984;3.538;2024-02-26T08:47:01;100069.66;;;8.78;73.61
47716;BME280;33476;50.984;3.538;2024-02-26T08:49:27;100073.75;;;8.82;73.48
47716;BME280;33476;50.984;3.538;2024-02-26T08:51:53;100076.44;;;8.81;73.67
47716;BME280;33476;50.984;3.538;2024-02-26T08:54:18;100074.91;;;8.77;73.74
47716;BME280;33476;50.984;3.538;2024-02-26T08:56:43;100083.59;;;8.77;73.73
47716;BME280;33476;50.984;3.538;2024-02-26T08:59:09;100088.47;;;8.83;73.44
47716;BME280;33476;50.984;3.538;2024-02-26T09:01:34;100082.31;;;8.84;73.29
47716;BME280;33476;50.984;3.538;2024-02-26T09:03:59;100091.75;;;8.87;73.43
47716;BME280;33476;50.984;3.538;2024-02-26T09:06:25;100096.13;;;8.86;73.36
47716;BME280;33476;50.984;3.538;2024-02-26T09:08:50;100104.00;;;8.85;73.24
47716;BME280;33476;50.984;3.538;2024-02-26T09:11:16;100104.25;;;8.80;73.62
47716;BME280;33476;50.984;3.538;2024-02-26T09:13:41;100113.91;;;8.78;73.53
47716;BME280;33476;50.984;3.538;2024-02-26T09:16:07;100124.63;;;8.72;74.03
47716;BME280;33476;50.984;3.538;2024-02-26T09:18:32;100127.16;;;8.73;74.12
47716;BME280;33476;50.984;3.538;2024-02-26T09:20:58;100123.78;;;8.71;73.91
47716;BME280;33476;50.984;3.538;2024-02-26T09:23:23;100124.47;;;8.75;73.66
47716;BME280;33476;50.984;3.538;2024-02-26T09:25:49;100136.94;;;8.68;73.59
47716;BME280;33476;50.984;3.538;2024-02-26T09:28:14;100146.69;;;8.65;73.95
47716;BME280;33476;50.984;3.538;2024-02-26T09:30:42;100137.28;;;8.62;74.23
47716;BME280;33476;50.984;3.538;2024-02-26T09:33:08;100156.44;;;8.61;73.97
47716;BME280;33476;50.984;3.538;2024-02-26T09:35:33;100154.81;;;8.59;74.03
47716;BME280;33476;50.984;3.538;2024-02-26T09:37:59;100152.97;;;8.61;74.08
47716;BME280;33476;50.984;3.538;2024-02-26T09:40:24;100153.66;;;8.64;74.01
47716;BME280;33476;50.984;3.538;2024-02-26T09:42:53;100164.44;;;8.57;74.44
47716;BME280;33476;50.984;3.538;2024-02-26T09:45:22;100168.72;;;8.58;73.75
47716;BME280;33476;50.984;3.538;2024-02-26T09:47:48;100168.28;;;8.50;74.04
47716;BME280;33476;50.984;3.538;2024-02-26T09:50:16;100177.75;;;8.51;74.49
47716;BME280;33476;50.984;3.538;2024-02-26T09:52:43;100176.72;;;8.55;74.65
47716;BME280;33476;50.984;3.538;2024-02-26T09:55:09;100171.59;;;8.53;74.39
47716;BME280;33476;50.984;3.538;2024-02-26T09:57:37;100191.41;;;8.56;74.48
47716;BME280;33476;50.984;3.538;2024-02-26T10:00:03;100200.91;;;8.57;74.57
47716;BME280;33476;50.984;3.538;2024-02-26T10:02:35;100201.72;;;8.57;74.59
47716;BME280;33476;50.984;3.538;2024-02-26T10:05:02;100200.69;;;8.61;74.40
47716;BME280;33476;50.984;3.538;2024-02-26T10:07:30;100203.03;;;8.66;74.37
47716;BME280;33476;50.984;3.538;2024-02-26T10:09:56;100212.78;;;8.62;73.83
47716;BME280;33476;50.984;3.538;2024-02-26T10:12:21;100215.75;;;8.55;74.40
47716;BME280;33476;50.984;3.538;2024-02-26T10:14:47;100207.56;;;8.45;74.48
47716;BME280;33476;50.984;3.538;2024-02-26T10:17:12;100230.19;;;8.43;74.83
47716;BME280;33476;50.984;3.538;2024-02-26T10:19:38;100242.34;;;8.42;74.68
47716;BME280;33476;50.984;3.538;2024-02-26T10:22:03;100237.03;;;8.46;74.44
47716;BME280;33476;50.984;3.538;2024-02-26T10:24:30;100243.75;;;8.50;74.96
47716;BME280;33476;50.984;3.538;2024-02-26T10:26:56;100244.66;;;8.49;74.42
47716;BME280;33476;50.984;3.538;2024-02-26T10:29:23;100252.19;;;8.55;74.53
47716;BME280;33476;50.984;3.538;2024-02-26T10:31:51;100253.78;;;8.57;74.77
47716;BME280;33476;50.984;3.538;2024-02-26T10:34:16;100269.66;;;8.53;74.82
47716;BME280;33476;50.984;3.538;2024-02-26T10:36:42;100270.78;;;8.47;74.28
47716;BME280;33476;50.984;3.538;2024-02-26T10:39:08;100280.09;;;8.51;74.24
47716;BME280;33476;50.984;3.538;2024-02-26T10:41:34;100276.53;;;8.54;74.91
47716;BME280;33476;50.984;3.538;2024-02-26T10:44:00;100274.63;;;8.57;74.50
47716;BME280;33476;50.984;3.538;2024-02-26T10:46:26;100291.00;;;8.59;74.53
47716;BME280;33476;50.984;3.538;2024-02-26T10:48:52;100299.81;;;8.57;74.52
47716;BME280;33476;50.984;3.538;2024-02-26T10:51:26;100301.28;;;8.62;74.35
47716;BME280;33476;50.984;3.538;2024-02-26T10:53:55;100300.19;;;8.66;74.42
47716;BME280;33476;50.984;3.538;2024-02-26T10:56:24;100301.13;;;8.65;74.70
47716;BME280;33476;50.984;3.538;2024-02-26T10:58:52;100309.56;;;8.70;74.57
47716;BME280;33476;50.984;3.538;2024-02-26T11:01:18;100314.53;;;8.75;74.42
47716;BME280;33476;50.984;3.538;2024-02-26T11:03:45;100318.69;;;8.79;74.23
47716;BME280;33476;50.984;3.538;2024-02-26T11:06:12;100320.28;;;8.82;73.85
47716;BME280;33476;50.984;3.538;2024-02-26T11:08:38;100331.72;;;8.79;73.97
47716;BME280;33476;50.984;3.538;2024-02-26T11:11:04;100330.16;;;8.75;74.16
47716;BME280;33476;50.984;3.538;2024-02-26T11:13:31;100340.72;;;8.72;74.22
47716;BME280;33476;50.984;3.538;2024-02-26T11:15:57;100347.78;;;8.70;74.19
47716;BME280;33476;50.984;3.538;2024-02-26T11:18:26;100348.69;;;8.69;74.61
47716;BME280;33476;50.984;3.538;2024-02-26T11:20:54;100354.66;;;8.71;74.18
47716;BME280;33476;50.984;3.538;2024-02-26T11:23:22;100356.13;;;8.77;74.01
47716;BME280;33476;50.984;3.538;2024-02-26T11:25:49;100361.47;;;8.73;73.97
47716;BME280;33476;50.984;3.538;2024-02-26T11:28:17;100364.09;;;8.73;74.09
47716;BME280;33476;50.984;3.538;2024-02-26T11:30:47;100358.03;;;8.73;74.26
47716;BME280;33476;50.984;3.538;2024-02-26T11:33:13;100363.31;;;8.71;74.20
47716;BME280;33476;50.984;3.538;2024-02-26T11:35:40;100362.56;;;8.69;74.30
47716;BME280;33476;50.984;3.538;2024-02-26T11:38:05;100371.25;;;8.68;74.46
47716;BME280;33476;50.984;3.538;2024-02-26T11:40:33;100371.25;;;8.68;74.11
47716;BME280;33476;50.984;3.538;2024-02-26T11:42:58;100377.53;;;8.64;74.66
47716;BME280;33476;50.984;3.538;2024-02-26T11:48:11;100378.66;;;8.59;74.55
47716;BME280;33476;50.984;3.538;2024-02-26T11:50:40;100390.75;;;8.60;74.60
47716;BME280;33476;50.984;3.538;2024-02-26T11:53:27;100376.91;;;8.59;74.65
47716;BME280;33476;50.984;3.538;2024-02-26T11:59:04;100396.81;;;8.60;74.69
47716;BME280;33476;50.984;3.538;2024-02-26T12:01:47;100392.81;;;8.53;74.80
47716;BME280;33476;50.984;3.538;2024-02-26T12:04:19;100397.59;;;8.62;74.35
47716;BME280;33476;50.984;3.538;2024-02-26T12:09:12;100406.03;;;8.67;74.47
47716;BME280;33476;50.984;3.538;2024-02-26T12:11:39;100405.97;;;8.69;74.16
47716;BME280;33476;50.984;3.538;2024-02-26T12:14:08;100407.72;;;8.68;74.25
47716;BME280;33476;50.984;3.538;2024-02-26T12:16:38;100405.25;;;8.65;74.25
47716;BME280;33476;50.984;3.538;2024-02-26T12:19:06;100422.47;;;8.68;74.04
47716;BME280;33476;50.984;3.538;2024-02-26T12:21:36;100425.25;;;8.65;74.38
47716;BME280;33476;50.984;3.538;2024-02-26T12:24:12;100434.03;;;8.62;74.46
47716;BME280;33476;50.984;3.538;2024-02-26T12:26:39;100431.44;;;8.62;74.81
47716;BME280;33476;50.984;3.538;2024-02-26T12:29:04;100442.81;;;8.60;74.52
47716;BME280;33476;50.984;3.538;2024-02-26T12:31:31;100438.44;;;8.60;75.10
47716;BME280;33476;50.984;3.538;2024-02-26T12:33:56;100448.59;;;8.66;74.25
47716;BME280;33476;50.984;3.538;2024-02-26T12:36:22;100454.53;;;8.70;74.86
47716;BME280;33476;50.984;3.538;2024-02-26T12:38:50;100458.03;;;8.69;74.38
47716;BME280;33476;50.984;3.538;2024-02-26T12:41:16;100457.13;;;8.70;74.37
47716;BME280;33476;50.984;3.538;2024-02-26T12:43:41;100453.81;;;8.66;74.90
47716;BME280;33476;50.984;3.538;2024-02-26T12:46:07;100463.28;;;8.67;75.01
47716;BME280;33476;50.984;3.538;2024-02-26T12:48:32;100475.41;;;8.68;74.43
47716;BME280;33476;50.984;3.538;2024-02-26T12:50:59;100478.16;;;8.65;74.36
47716;BME280;33476;50.984;3.538;2024-02-26T12:53:25;100475.69;;;8.62;75.16
47716;BME280;33476;50.984;3.538;2024-02-26T12:55:50;100487.72;;;8.65;74.88
47716;BME280;33476;50.984;3.538;2024-02-26T12:58:16;100495.53;;;8.65;74.88
47716;BME280;33476;50.984;3.538;2024-02-26T13:00:42;100490.53;;;8.60;75.09
47716;BME280;33476;50.984;3.538;2024-02-26T13:03:09;100492.16;;;8.63;75.05
47716;BME280;33476;50.984;3.538;2024-02-26T13:05:35;100504.91;;;8.69;74.81
47716;BME280;33476;50.984;3.538;2024-02-26T13:08:00;100501.25;;;8.73;74.59
47716;BME280;33476;50.984;3.538;2024-02-26T13:10:26;100508.22;;;8.72;74.40